createdAt,value
2022-08-03T00:01:41.152Z,22.29
2022-08-03T00:03:44.133Z,22.24
2022-08-03T00:06:04.579Z,22.17
2022-08-03T00:08:07.904Z,22.13
2022-08-03T00:10:12.086Z,22.10
2022-08-03T00:12:15.043Z,22.05
2022-08-03T00:14:18.078Z,22.04
2022-08-03T00:16:20.815Z,22.04
2022-08-03T00:18:25.766Z,22.03
2022-08-03T00:20:28.402Z,22.03
2022-08-03T00:22:33.768Z,22.02
2022-08-03T00:24:36.333Z,22.01
2022-08-03T00:26:39.215Z,22.01
2022-08-03T00:28:41.862Z,22.00
2022-08-03T00:30:44.490Z,21.99
2022-08-03T00:32:47.488Z,21.96
2022-08-03T00:34:57.238Z,21.93
2022-08-03T00:37:00.600Z,21.95
2022-08-03T00:39:03.343Z,21.93
2022-08-03T00:41:06.129Z,21.89
2022-08-03T00:43:09.314Z,21.86
2022-08-03T00:45:11.963Z,21.85
2022-08-03T00:47:14.786Z,21.82
2022-08-03T00:49:20.662Z,21.83
2022-08-03T00:51:23.639Z,21.83
2022-08-03T00:53:27.474Z,21.81
2022-08-03T00:55:30.094Z,21.78
2022-08-03T00:57:33.314Z,21.72
2022-08-03T00:59:35.935Z,21.68
2022-08-03T01:01:38.695Z,21.63
2022-08-03T01:03:44.450Z,21.63
2022-08-03T01:05:55.364Z,21.61
2022-08-03T01:08:03.529Z,21.60
2022-08-03T01:10:14.347Z,21.60
2022-08-03T01:12:24.044Z,21.61
2022-08-03T01:14:33.846Z,21.62
2022-08-03T01:16:43.991Z,21.59
2022-08-03T01:18:51.836Z,21.56
2022-08-03T01:20:58.128Z,21.55
2022-08-03T01:23:34.480Z,21.50
2022-08-03T01:25:54.739Z,21.48
2022-08-03T01:28:10.472Z,21.46
2022-08-03T01:30:14.354Z,21.44
2022-08-03T01:32:53.579Z,21.44
2022-08-03T01:34:46.385Z,21.44
2022-08-03T01:36:53.089Z,21.43
2022-08-03T01:39:00.963Z,21.41
2022-08-03T01:41:08.157Z,21.37
2022-08-03T01:43:15.756Z,21.34
2022-08-03T01:45:39.155Z,21.35
2022-08-03T01:47:44.223Z,21.32
2022-08-03T01:49:49.631Z,21.28
2022-08-03T01:52:03.998Z,21.27
2022-08-03T01:54:09.242Z,21.27
2022-08-03T01:56:13.307Z,21.26
2022-08-03T01:58:19.321Z,21.24
2022-08-03T02:00:23.593Z,21.25
2022-08-03T02:02:33.081Z,21.25
2022-08-03T02:04:38.940Z,21.24
2022-08-03T02:07:02.103Z,21.23
2022-08-03T02:09:07.321Z,21.24
2022-08-03T02:11:10.363Z,21.23
2022-08-03T02:13:16.401Z,21.23
2022-08-03T02:15:21.604Z,21.21
2022-08-03T02:17:39.434Z,21.21
2022-08-03T02:19:44.738Z,21.18
2022-08-03T02:21:56.351Z,21.14
2022-08-03T02:24:04.101Z,21.11
2022-08-03T02:26:11.506Z,21.08
2022-08-03T02:28:19.532Z,21.05
2022-08-03T02:30:27.373Z,21.01
2022-08-03T02:32:34.003Z,20.96
2022-08-03T02:34:37.238Z,20.92
2022-08-03T02:36:42.387Z,20.90
2022-08-03T02:38:48.777Z,20.89
2022-08-03T02:40:53.827Z,20.89
2022-08-03T02:42:58.915Z,20.88
2022-08-03T02:45:05.951Z,20.89
2022-08-03T02:47:11.696Z,20.89
2022-08-03T02:49:40.728Z,20.91
2022-08-03T02:51:40.924Z,20.91
2022-08-03T02:53:45.537Z,20.92
2022-08-03T02:55:48.798Z,20.91
2022-08-03T02:57:52.292Z,20.91
2022-08-03T02:59:56.953Z,20.92
2022-08-03T03:02:01.706Z,20.94
2022-08-03T03:04:05.727Z,20.96
2022-08-03T03:06:13.189Z,20.97
2022-08-03T03:08:26.048Z,20.94
2022-08-03T03:10:30.029Z,20.91
2022-08-03T03:12:35.381Z,20.90
2022-08-03T03:14:38.740Z,20.90
2022-08-03T03:16:43.989Z,20.89
2022-08-03T03:18:48.944Z,20.86
2022-08-03T03:20:52.369Z,20.85
2022-08-03T03:22:55.389Z,20.82
2022-08-03T03:24:58.703Z,20.83
2022-08-03T03:27:02.151Z,20.83
2022-08-03T03:29:06.309Z,20.82
2022-08-03T03:31:09.908Z,20.83
2022-08-03T03:33:12.914Z,20.83
2022-08-03T03:35:16.372Z,20.87
2022-08-03T03:37:19.127Z,20.87
2022-08-03T03:39:21.767Z,20.90
2022-08-03T03:41:24.601Z,20.93
2022-08-03T03:43:27.466Z,20.92
2022-08-03T03:45:33.903Z,20.91
2022-08-03T03:47:37.133Z,20.89
2022-08-03T03:49:40.062Z,20.87
2022-08-03T03:51:42.833Z,20.87
2022-08-03T03:53:58.477Z,20.87
2022-08-03T03:56:02.327Z,20.85
2022-08-03T03:58:05.860Z,20.81
2022-08-03T04:00:11.423Z,20.77
2022-08-03T04:02:14.468Z,20.74
2022-08-03T04:04:17.277Z,20.74
2022-08-03T04:06:20.484Z,20.73
2022-08-03T04:08:23.450Z,20.72
2022-08-03T04:10:31.966Z,20.73
2022-08-03T04:12:38.168Z,20.73
2022-08-03T04:14:57.042Z,20.70
2022-08-03T04:17:06.638Z,20.68
2022-08-03T04:19:13.395Z,20.68
2022-08-03T04:21:18.666Z,20.72
2022-08-03T04:23:24.944Z,20.76
2022-08-03T04:25:32.271Z,20.82
2022-08-03T04:27:39.859Z,20.80
2022-08-03T04:29:48.465Z,20.79
2022-08-03T04:31:53.978Z,20.78
2022-08-03T04:33:57.664Z,20.84
2022-08-03T04:36:03.953Z,20.92
2022-08-03T04:38:08.335Z,20.99
2022-08-03T04:40:19.262Z,21.04
2022-08-03T04:42:31.285Z,21.04
2022-08-03T04:44:36.911Z,21.05
2022-08-03T04:46:41.336Z,21.09
2022-08-03T04:48:53.889Z,21.14
2022-08-03T04:50:56.920Z,21.18
2022-08-03T04:52:59.840Z,21.23
2022-08-03T04:55:03.638Z,21.27
2022-08-03T04:57:07.021Z,21.30
2022-08-03T04:59:12.529Z,21.31
2022-08-03T05:01:16.279Z,21.35
2022-08-03T05:03:20.128Z,21.39
2022-08-03T05:05:37.879Z,21.45
2022-08-03T05:07:49.964Z,21.55
2022-08-03T05:10:03.093Z,21.62
2022-08-03T05:12:07.274Z,21.68
2022-08-03T05:14:09.805Z,21.71
2022-08-03T05:16:13.973Z,21.73
2022-08-03T05:18:16.486Z,21.77
2022-08-03T05:20:19.541Z,21.84
2022-08-03T05:22:22.498Z,21.92
2022-08-03T05:24:25.097Z,21.96
2022-08-03T05:26:27.761Z,22.01
2022-08-03T05:28:30.396Z,22.07
2022-08-03T05:30:36.768Z,22.07
2022-08-03T05:32:39.487Z,22.08
2022-08-03T05:34:42.901Z,22.12
2022-08-03T05:36:45.434Z,22.18
2022-08-03T05:38:48.138Z,22.22
2022-08-03T05:40:56.840Z,22.32
2022-08-03T05:43:01.349Z,22.38
2022-08-03T05:45:05.028Z,22.40
2022-08-03T05:47:07.637Z,22.46
2022-08-03T05:49:10.214Z,22.54
2022-08-03T05:51:12.821Z,22.60
2022-08-03T05:53:15.405Z,22.67
2022-08-03T05:55:18.313Z,22.74
2022-08-03T05:57:20.847Z,22.82
2022-08-03T05:59:38.208Z,22.92
2022-08-03T06:01:44.794Z,23.01
2022-08-03T06:03:48.266Z,23.08
2022-08-03T06:05:57.382Z,23.15
2022-08-03T06:08:03.393Z,23.25
2022-08-03T06:10:36.502Z,23.35
2022-08-03T06:12:31.020Z,23.46
2022-08-03T06:14:33.656Z,23.55
2022-08-03T06:16:36.164Z,23.63
2022-08-03T06:18:40.096Z,23.71
2022-08-03T06:20:43.785Z,23.78
2022-08-03T06:22:50.683Z,23.85
2022-08-03T06:24:54.746Z,23.96
2022-08-03T06:26:57.251Z,24.06
2022-08-03T06:28:59.946Z,24.14
2022-08-03T06:31:06.735Z,24.22
2022-08-03T06:33:09.507Z,24.29
2022-08-03T06:35:12.052Z,24.39
2022-08-03T06:37:14.638Z,24.50
2022-08-03T06:39:17.302Z,24.60
2022-08-03T06:41:20.201Z,24.70
2022-08-03T06:43:22.834Z,24.80
2022-08-03T06:45:26.273Z,24.89
2022-08-03T06:47:34.782Z,25.00
2022-08-03T06:49:37.535Z,25.10
2022-08-03T06:52:05.785Z,25.21
2022-08-03T06:54:03.082Z,25.27
2022-08-03T06:56:07.054Z,25.32
2022-08-03T06:58:09.627Z,25.42
2022-08-03T07:00:13.904Z,25.53
2022-08-03T07:02:18.985Z,25.65
2022-08-03T07:04:22.062Z,25.72
2022-08-03T07:06:24.598Z,25.82
2022-08-03T07:08:34.162Z,25.89
2022-08-03T07:10:37.192Z,25.94
2022-08-03T07:12:52.685Z,26.00
2022-08-03T07:15:02.186Z,26.03
2022-08-03T07:17:11.766Z,26.07
2022-08-03T07:19:14.572Z,26.14
2022-08-03T07:21:17.134Z,26.15
2022-08-03T07:23:19.728Z,26.13
2022-08-03T07:25:22.594Z,26.18
2022-08-03T07:27:31.062Z,26.11
2022-08-03T07:29:34.687Z,26.08
2022-08-03T07:31:37.394Z,26.16
2022-08-03T07:33:39.970Z,26.25
2022-08-03T07:35:42.589Z,26.31
2022-08-03T07:37:54.124Z,26.39
2022-08-03T07:39:57.358Z,26.48
2022-08-03T07:41:59.898Z,26.51
2022-08-03T07:44:02.718Z,26.53
2022-08-03T07:46:05.359Z,26.53
2022-08-03T07:48:12.146Z,26.56
2022-08-03T07:50:15.109Z,26.61
2022-08-03T07:52:23.533Z,26.67
2022-08-03T07:54:31.128Z,26.70
2022-08-03T07:56:34.160Z,26.68
2022-08-03T07:58:36.831Z,26.71
2022-08-03T08:00:39.574Z,26.80
2022-08-03T08:02:42.926Z,26.90
2022-08-03T08:04:45.531Z,26.97
2022-08-03T08:06:48.026Z,27.04
2022-08-03T08:08:50.651Z,27.09
2022-08-03T08:10:57.824Z,27.12
2022-08-03T08:13:02.161Z,27.14
2022-08-03T08:15:07.553Z,27.20
2022-08-03T08:17:10.206Z,27.25
2022-08-03T08:19:12.915Z,27.31
2022-08-03T08:21:15.490Z,27.37
2022-08-03T08:23:19.351Z,27.41
2022-08-03T08:25:41.910Z,27.47
2022-08-03T08:28:29.234Z,27.51
2022-08-03T08:30:12.179Z,27.53
2022-08-03T08:32:15.304Z,27.54
2022-08-03T08:34:18.192Z,27.59
2022-08-03T08:36:20.994Z,27.67
2022-08-03T08:38:23.649Z,27.77
2022-08-03T08:40:27.634Z,27.84
2022-08-03T08:42:31.432Z,27.94
2022-08-03T08:44:34.197Z,28.03
2022-08-03T08:46:38.850Z,28.07
2022-08-03T08:48:43.631Z,28.09
2022-08-03T08:50:46.438Z,28.06
2022-08-03T08:52:51.539Z,28.05
2022-08-03T08:54:57.894Z,28.13
2022-08-03T08:57:06.660Z,28.21
2022-08-03T08:59:19.377Z,28.32
2022-08-03T09:01:22.070Z,28.40
2022-08-03T09:03:30.025Z,28.45
2022-08-03T09:05:55.102Z,28.48
2022-08-03T09:07:55.930Z,28.53
2022-08-03T09:10:10.390Z,28.58
2022-08-03T09:12:40.587Z,28.63
2022-08-03T09:14:49.729Z,28.68
2022-08-03T09:17:03.035Z,28.74
2022-08-03T09:19:13.868Z,28.78
2022-08-03T09:21:31.223Z,28.87
2022-08-03T09:23:59.789Z,28.99
2022-08-03T09:26:03.647Z,29.02
2022-08-03T09:28:12.984Z,28.98
2022-08-03T09:30:37.093Z,29.04
2022-08-03T09:32:40.140Z,29.07
2022-08-03T09:34:43.009Z,29.14
2022-08-03T09:36:47.055Z,29.21
2022-08-03T09:39:01.499Z,29.31
2022-08-03T09:41:17.751Z,29.43
2022-08-03T09:43:20.717Z,29.50
2022-08-03T09:45:27.415Z,29.56
2022-08-03T09:47:31.530Z,29.61
2022-08-03T09:49:34.215Z,29.69
2022-08-03T09:52:33.647Z,29.77
2022-08-03T09:54:00.721Z,29.77
2022-08-03T09:56:35.568Z,29.72
2022-08-03T09:58:27.579Z,29.70
2022-08-03T10:00:30.527Z,29.70
2022-08-03T10:02:33.100Z,29.75
2022-08-03T10:04:47.147Z,29.82
2022-08-03T10:07:05.403Z,29.89
2022-08-03T10:09:09.725Z,29.95
2022-08-03T10:11:29.922Z,29.97
2022-08-03T10:13:32.967Z,30.04
2022-08-03T10:16:21.521Z,30.09
2022-08-03T10:17:58.350Z,30.07
2022-08-03T10:20:00.984Z,30.09
2022-08-03T10:22:09.614Z,30.14
2022-08-03T10:24:15.427Z,30.19
2022-08-03T10:26:21.866Z,30.21
2022-08-03T10:28:25.006Z,30.23
2022-08-03T10:30:28.830Z,30.21
2022-08-03T10:32:38.068Z,30.24
2022-08-03T10:34:44.789Z,30.30
2022-08-03T10:36:48.486Z,30.37
2022-08-03T10:38:51.937Z,30.46
2022-08-03T10:40:58.939Z,30.53
2022-08-03T10:43:06.726Z,30.59
2022-08-03T10:45:17.464Z,30.53
2022-08-03T10:47:20.393Z,30.39
2022-08-03T10:49:34.687Z,30.35
2022-08-03T10:51:38.616Z,30.38
2022-08-03T10:53:44.165Z,30.40
2022-08-03T10:55:57.052Z,30.41
2022-08-03T10:58:01.384Z,30.43
2022-08-03T11:00:05.539Z,30.48
2022-08-03T11:02:08.172Z,30.52
2022-08-03T11:04:18.433Z,30.56
2022-08-03T11:06:22.980Z,30.57
2022-08-03T11:08:30.884Z,30.60
2022-08-03T11:10:33.456Z,30.67
2022-08-03T11:12:36.783Z,30.72
2022-08-03T11:14:48.014Z,30.71
2022-08-03T11:17:07.522Z,30.69
2022-08-03T11:19:18.726Z,30.66
2022-08-03T11:21:41.520Z,30.68
2022-08-03T11:24:04.987Z,30.71
2022-08-03T11:26:16.263Z,30.74
2022-08-03T11:28:35.917Z,30.73
2022-08-03T11:30:38.436Z,30.65
2022-08-03T11:33:00.050Z,30.67
2022-08-03T11:35:10.208Z,30.66
2022-08-03T11:37:22.363Z,30.62
2022-08-03T11:39:38.243Z,30.64
2022-08-03T11:41:44.905Z,30.67
2022-08-03T11:43:47.976Z,30.75
2022-08-03T11:45:58.586Z,30.81
2022-08-03T11:48:13.910Z,30.82
2022-08-03T11:50:16.610Z,30.85
2022-08-03T11:52:26.678Z,30.91
2022-08-03T11:54:31.896Z,30.98
2022-08-03T11:56:45.197Z,30.99
2022-08-03T11:59:15.375Z,31.06
2022-08-03T12:01:11.099Z,31.18
2022-08-03T12:03:15.333Z,31.25
2022-08-03T12:05:18.272Z,31.34
2022-08-03T12:07:25.032Z,31.36
2022-08-03T12:09:43.698Z,31.36
2022-08-03T12:11:56.223Z,31.37
2022-08-03T12:14:44.586Z,31.39
2022-08-03T12:16:28.068Z,31.42
2022-08-03T12:18:30.699Z,31.41
2022-08-03T12:20:34.828Z,31.41
2022-08-03T12:22:39.993Z,31.41
2022-08-03T12:24:43.536Z,31.38
2022-08-03T12:26:58.816Z,31.38
2022-08-03T12:29:03.490Z,31.43
2022-08-03T12:31:07.696Z,31.56
2022-08-03T12:33:18.923Z,31.72
2022-08-03T12:35:24.771Z,31.87
2022-08-03T12:37:27.838Z,32.03
2022-08-03T12:39:31.617Z,32.16
2022-08-03T12:41:36.202Z,32.28
2022-08-03T12:43:46.928Z,32.32
2022-08-03T12:45:49.557Z,32.32
2022-08-03T12:47:57.383Z,32.33
2022-08-03T12:49:59.965Z,32.30
2022-08-03T12:52:07.234Z,32.34
2022-08-03T12:54:15.788Z,32.36
2022-08-03T12:56:20.384Z,32.31
2022-08-03T12:58:40.249Z,32.32
2022-08-03T13:00:55.323Z,32.32
2022-08-03T13:03:38.303Z,32.21
2022-08-03T13:05:25.953Z,32.08
2022-08-03T13:07:28.536Z,31.96
2022-08-03T13:09:41.700Z,31.93
2022-08-03T13:11:53.556Z,31.93
2022-08-03T13:14:04.662Z,31.98
2022-08-03T13:16:07.305Z,32.05
2022-08-03T13:18:09.862Z,32.09
2022-08-03T13:20:12.422Z,32.11
2022-08-03T13:22:17.570Z,32.14
2022-08-03T13:24:20.298Z,32.16
2022-08-03T13:26:22.996Z,32.06
2022-08-03T13:28:25.591Z,31.96
2022-08-03T13:30:30.388Z,31.93
2022-08-03T13:32:34.139Z,31.92
2022-08-03T13:34:36.931Z,31.87
2022-08-03T13:37:07.379Z,31.86
2022-08-03T13:39:02.316Z,31.83
2022-08-03T13:41:06.211Z,31.83
2022-08-03T13:43:08.876Z,31.87
2022-08-03T13:45:15.514Z,31.90
2022-08-03T13:47:18.588Z,31.96
2022-08-03T13:49:21.244Z,32.02
2022-08-03T13:51:23.800Z,32.05
2022-08-03T13:53:26.430Z,32.02
2022-08-03T13:55:29.469Z,31.97
2022-08-03T13:58:19.094Z,31.92
2022-08-03T13:59:54.944Z,31.86
2022-08-03T14:01:57.811Z,31.83
2022-08-03T14:04:00.438Z,31.84
2022-08-03T14:06:03.105Z,31.85
2022-08-03T14:08:06.658Z,31.86
2022-08-03T14:10:10.062Z,31.86
2022-08-03T14:12:12.639Z,31.82
2022-08-03T14:14:15.207Z,31.79
2022-08-03T14:16:17.856Z,31.78
2022-08-03T14:18:27.796Z,31.81
2022-08-03T14:20:37.926Z,31.88
2022-08-03T14:22:51.564Z,31.93
2022-08-03T14:24:54.198Z,31.88
2022-08-03T14:27:04.476Z,31.79
2022-08-03T14:29:10.065Z,31.73
2022-08-03T14:32:08.994Z,31.74
2022-08-03T14:33:35.456Z,31.77
2022-08-03T14:35:38.192Z,31.80
2022-08-03T14:37:40.839Z,31.78
2022-08-03T14:40:00.251Z,31.73
2022-08-03T14:42:03.438Z,31.67
2022-08-03T14:44:06.004Z,31.67
2022-08-03T14:46:08.513Z,31.66
2022-08-03T14:49:02.621Z,31.67
2022-08-03T14:50:41.944Z,31.70
2022-08-03T14:52:53.287Z,31.76
2022-08-03T14:54:55.929Z,31.81
2022-08-03T14:56:58.511Z,31.84
2022-08-03T14:59:01.234Z,31.90
2022-08-03T15:01:03.896Z,31.91
2022-08-03T15:03:26.436Z,31.88
2022-08-03T15:05:29.099Z,31.79
2022-08-03T15:07:31.752Z,31.72
2022-08-03T15:09:34.478Z,31.71
2022-08-03T15:11:37.096Z,31.71
2022-08-03T15:13:39.664Z,31.74
2022-08-03T15:15:42.730Z,31.73
2022-08-03T15:17:59.836Z,31.70
2022-08-03T15:20:28.905Z,31.68
2022-08-03T15:22:34.601Z,31.69
2022-08-03T15:24:38.118Z,31.67
2022-08-03T15:26:41.813Z,31.65
2022-08-03T15:28:44.639Z,31.64
2022-08-03T15:30:47.431Z,31.64
2022-08-03T15:32:50.018Z,31.64
2022-08-03T15:34:53.626Z,31.68
2022-08-03T15:36:56.210Z,31.73
2022-08-03T15:38:59.243Z,31.74
2022-08-03T15:41:01.901Z,31.68
2022-08-03T15:43:04.804Z,31.66
2022-08-03T15:45:11.516Z,31.67
2022-08-03T15:47:15.615Z,31.69
2022-08-03T15:49:18.295Z,31.69
2022-08-03T15:51:23.442Z,31.70
2022-08-03T15:53:29.083Z,31.72
2022-08-03T15:55:31.764Z,31.76
2022-08-03T15:57:34.363Z,31.75
2022-08-03T15:59:56.875Z,31.72
2022-08-03T16:01:59.614Z,31.71
2022-08-03T16:04:03.238Z,31.73
2022-08-03T16:06:07.664Z,31.76
2022-08-03T16:08:13.655Z,31.76
2022-08-03T16:10:17.680Z,31.78
2022-08-03T16:12:20.366Z,31.77
2022-08-03T16:14:32.463Z,31.76
2022-08-03T16:16:36.185Z,31.72
2022-08-03T16:18:38.714Z,31.68
2022-08-03T16:20:41.750Z,31.67
2022-08-03T16:22:45.938Z,31.70
2022-08-03T16:24:48.862Z,31.71
2022-08-03T16:26:51.601Z,31.68
2022-08-03T16:28:54.222Z,31.64
2022-08-03T16:30:57.232Z,31.60
2022-08-03T16:32:59.943Z,31.60
2022-08-03T16:35:02.650Z,31.60
2022-08-03T16:37:35.409Z,31.61
2022-08-03T16:39:28.902Z,31.59
2022-08-03T16:41:54.435Z,31.61
2022-08-03T16:43:54.264Z,31.61
2022-08-03T16:45:59.738Z,31.64
2022-08-03T16:48:05.870Z,31.62
2022-08-03T16:50:15.931Z,31.60
2022-08-03T16:52:21.826Z,31.61
2022-08-03T16:54:25.685Z,31.56
2022-08-03T16:56:30.728Z,31.51
2022-08-03T16:58:41.379Z,31.51
2022-08-03T17:00:46.415Z,31.50
2022-08-03T17:02:52.663Z,31.45
2022-08-03T17:04:56.222Z,31.40
2022-08-03T17:06:59.552Z,31.36
2022-08-03T17:09:03.984Z,31.35
2022-08-03T17:11:12.561Z,31.36
2022-08-03T17:13:39.587Z,31.39
2022-08-03T17:16:01.087Z,31.42
2022-08-03T17:18:07.887Z,31.42
2022-08-03T17:20:14.756Z,31.39
2022-08-03T17:22:19.788Z,31.35
2022-08-03T17:24:30.508Z,31.36
2022-08-03T17:26:38.876Z,31.37
2022-08-03T17:28:57.885Z,31.37
2022-08-03T17:31:01.370Z,31.37
2022-08-03T17:33:06.559Z,31.34
2022-08-03T17:35:23.050Z,31.31
2022-08-03T17:37:58.538Z,31.27
2022-08-03T17:39:59.504Z,31.23
2022-08-03T17:42:02.628Z,31.17
2022-08-03T17:46:29.447Z,31.07
2022-08-03T17:48:33.106Z,31.04
2022-08-03T17:50:45.689Z,31.02
2022-08-03T17:52:49.816Z,31.01
2022-08-03T17:55:55.893Z,31.00
2022-08-03T17:57:31.091Z,30.96
2022-08-03T18:00:00.982Z,30.93
2022-08-03T18:02:30.456Z,30.91
2022-08-03T18:04:41.676Z,30.84
2022-08-03T18:10:03.937Z,30.71
2022-08-03T18:11:37.230Z,30.64
2022-08-03T18:13:58.064Z,30.60
2022-08-03T18:16:02.793Z,30.54
2022-08-03T18:18:13.426Z,30.48
2022-08-03T18:20:34.748Z,30.43
2022-08-03T18:22:39.518Z,30.38
2022-08-03T18:24:45.808Z,30.33
2022-08-03T18:26:52.038Z,30.29
2022-08-03T18:28:55.133Z,30.25
2022-08-03T18:31:00.141Z,30.22
2022-08-03T18:34:19.022Z,30.17
2022-08-03T18:35:28.513Z,30.10
2022-08-03T18:37:52.575Z,30.03
2022-08-03T18:39:57.858Z,29.97
2022-08-03T18:42:00.974Z,29.92
2022-08-03T18:44:08.427Z,29.84
2022-08-03T18:46:46.596Z,29.78
2022-08-03T18:48:59.206Z,29.72
2022-08-03T18:51:28.602Z,29.66
2022-08-03T18:54:03.643Z,29.60
2022-08-03T18:56:18.041Z,29.51
2022-08-03T18:58:33.030Z,29.46
2022-08-03T19:00:54.043Z,29.42
2022-08-03T19:03:00.702Z,29.37
2022-08-03T19:05:07.899Z,29.35
2022-08-03T19:07:16.173Z,29.31
2022-08-03T19:09:27.839Z,29.28
2022-08-03T19:12:14.044Z,29.23
2022-08-03T19:14:07.354Z,29.18
2022-08-03T19:16:21.416Z,29.14
2022-08-03T19:18:25.764Z,29.07
2022-08-03T19:20:30.774Z,29.00
2022-08-03T19:22:34.108Z,28.95
2022-08-03T19:24:39.149Z,28.90
2022-08-03T19:26:41.967Z,28.85
2022-08-03T19:28:45.093Z,28.81
2022-08-03T19:30:59.678Z,28.75
2022-08-03T19:33:07.608Z,28.68
2022-08-03T19:35:13.559Z,28.61
2022-08-03T19:37:22.389Z,28.56
2022-08-03T19:39:25.302Z,28.49
2022-08-03T19:41:41.671Z,28.41
2022-08-03T19:43:53.140Z,28.31
2022-08-03T19:48:32.563Z,28.16
2022-08-03T19:50:36.927Z,28.09
2022-08-03T19:52:48.991Z,28.04
2022-08-03T19:54:55.321Z,28.03
2022-08-03T19:56:59.814Z,27.98
2022-08-03T19:59:07.761Z,27.91
2022-08-03T20:01:19.294Z,27.86
2022-08-03T20:03:26.106Z,27.82
2022-08-03T20:05:29.151Z,27.80
2022-08-03T20:07:51.933Z,27.76
2022-08-03T20:09:56.223Z,27.72
2022-08-03T20:11:59.848Z,27.70
2022-08-03T20:14:05.323Z,27.66
2022-08-03T20:16:10.851Z,27.59
2022-08-03T20:18:16.893Z,27.52
2022-08-03T20:20:21.076Z,27.47
2022-08-03T20:22:31.376Z,27.44
2022-08-03T20:24:36.081Z,27.41
2022-08-03T20:26:41.850Z,27.37
2022-08-03T20:28:50.348Z,27.34
2022-08-03T20:30:54.091Z,27.30
2022-08-03T20:32:57.324Z,27.25
2022-08-03T20:35:01.637Z,27.19
2022-08-03T20:37:04.944Z,27.15
2022-08-03T20:39:12.246Z,27.10
2022-08-03T20:41:17.017Z,27.00
2022-08-03T20:43:19.828Z,26.94
2022-08-03T20:46:00.321Z,26.89
2022-08-03T20:47:50.694Z,26.81
2022-08-03T20:49:54.496Z,26.75
2022-08-03T20:51:59.999Z,26.69
2022-08-03T20:54:07.838Z,26.65
2022-08-03T20:56:28.585Z,26.58
2022-08-03T20:58:32.049Z,26.52
2022-08-03T21:00:35.810Z,26.44
2022-08-03T21:02:41.319Z,26.41
2022-08-03T21:04:44.033Z,26.36
2022-08-03T21:06:56.197Z,26.30
2022-08-03T21:09:04.104Z,26.23
2022-08-03T21:11:11.186Z,26.13
2022-08-03T21:12:54.884Z,31.11
2022-08-03T21:13:04.990Z,30.79
2022-08-03T21:13:08.841Z,28.23
2022-08-03T21:13:22.579Z,26.05
2022-08-03T21:16:02.900Z,25.97
2022-08-03T21:17:53.764Z,25.93
2022-08-03T21:19:58.121Z,25.90
2022-08-03T21:22:03.938Z,25.86
2022-08-03T21:24:11.126Z,25.78
2022-08-03T21:26:15.393Z,25.72
2022-08-03T21:28:19.081Z,25.69
2022-08-03T21:30:30.710Z,25.68
2022-08-03T21:32:33.708Z,25.66
2022-08-03T21:34:36.471Z,25.64
2022-08-03T21:36:39.167Z,25.62
2022-08-03T21:38:42.053Z,25.60
2022-08-03T21:40:45.477Z,25.58
2022-08-03T21:42:48.170Z,25.54
2022-08-03T21:44:51.336Z,25.45
2022-08-03T21:46:54.598Z,25.38
2022-08-03T21:50:07.081Z,25.35
2022-08-03T21:51:25.715Z,25.32
2022-08-03T21:54:02.541Z,25.31
2022-08-03T21:55:56.516Z,25.30
2022-08-03T21:58:03.152Z,25.28
2022-08-03T22:00:10.911Z,25.24
2022-08-03T22:02:24.118Z,25.18
2022-08-03T22:04:50.674Z,25.12
2022-08-03T22:06:51.803Z,25.03
2022-08-03T22:08:54.774Z,24.94
2022-08-03T22:11:04.424Z,24.88
2022-08-03T22:13:07.447Z,24.83
2022-08-03T22:15:13.191Z,24.78
2022-08-03T22:17:54.077Z,24.73
2022-08-03T22:19:39.835Z,24.66
2022-08-03T22:21:46.212Z,24.65
2022-08-03T22:23:50.954Z,24.62
2022-08-03T22:25:55.793Z,24.57
2022-08-03T22:28:00.652Z,24.53
2022-08-03T22:30:06.373Z,24.49
2022-08-03T22:32:09.836Z,24.43
2022-08-03T22:34:12.637Z,24.38
2022-08-03T22:36:17.303Z,24.33
2022-08-03T22:38:20.206Z,24.27
2022-08-03T22:40:22.870Z,24.21
2022-08-03T22:42:26.462Z,24.15
2022-08-03T22:44:30.943Z,24.12
2022-08-03T22:46:35.058Z,24.12
2022-08-03T22:48:40.873Z,24.11
2022-08-03T22:50:45.370Z,24.10
2022-08-03T22:52:47.923Z,24.12
2022-08-03T22:54:54.290Z,24.11
2022-08-03T22:56:59.636Z,24.10
2022-08-03T22:59:40.226Z,24.08
2022-08-03T23:01:27.489Z,24.06
2022-08-03T23:04:00.591Z,24.03
2022-08-03T23:06:01.645Z,24.03
2022-08-03T23:08:08.904Z,23.98
2022-08-03T23:10:13.332Z,23.93
2022-08-03T23:12:18.512Z,23.92
2022-08-03T23:14:22.743Z,23.91
2022-08-03T23:16:29.142Z,23.90
2022-08-03T23:18:37.311Z,23.87
2022-08-03T23:20:41.199Z,23.88
2022-08-03T23:22:47.932Z,23.89
2022-08-03T23:24:55.875Z,23.90
2022-08-03T23:26:59.142Z,23.87
2022-08-03T23:29:03.265Z,23.87
2022-08-03T23:31:08.211Z,23.86
2022-08-03T23:33:12.236Z,23.86
2022-08-03T23:35:15.502Z,23.88
2022-08-03T23:37:18.819Z,23.86
2022-08-03T23:39:23.510Z,23.85
2022-08-03T23:41:26.639Z,23.83
2022-08-03T23:43:52.421Z,23.78
2022-08-03T23:45:56.990Z,23.74
2022-08-03T23:47:59.656Z,23.67
2022-08-03T23:50:02.721Z,23.61
2022-08-03T23:52:14.750Z,23.52
2022-08-03T23:54:28.681Z,23.45
2022-08-03T23:56:37.512Z,23.43
2022-08-03T23:58:59.176Z,23.39
